createdAt,value
2018-03-06T00:02:03.727Z,9.33
2018-03-06T00:04:32.070Z,6.83
2018-03-06T00:07:01.144Z,8.60
2018-03-06T00:09:29.450Z,8.43
2018-03-06T00:11:58.461Z,8.33
2018-03-06T00:14:26.851Z,10.33
2018-03-06T00:16:56.715Z,8.60
2018-03-06T00:19:25.033Z,7.90
2018-03-06T00:21:53.294Z,6.97
2018-03-06T00:24:22.393Z,9.73
2018-03-06T00:26:50.734Z,11.67
2018-03-06T00:29:19.014Z,9.30
2018-03-06T00:31:47.306Z,8.83
2018-03-06T00:34:17.158Z,6.70
2018-03-06T00:36:45.397Z,15.80
2018-03-06T00:39:13.669Z,9.20
2018-03-06T00:41:42.081Z,7.70
2018-03-06T00:44:10.617Z,7.10
2018-03-06T00:46:38.991Z,9.77
2018-03-06T00:49:08.833Z,5.80
2018-03-06T00:51:39.272Z,9.20
2018-03-06T00:54:07.521Z,7.37
2018-03-06T00:56:36.789Z,8.00
2018-03-06T00:59:05.152Z,7.03
2018-03-06T01:01:33.463Z,11.33
2018-03-06T01:04:01.724Z,8.13
2018-03-06T01:06:30.771Z,10.30
2018-03-06T01:08:59.045Z,7.83
2018-03-06T01:11:27.284Z,8.10
2018-03-06T01:13:55.546Z,13.63
2018-03-06T01:16:23.837Z,7.00
2018-03-06T01:18:52.222Z,11.20
2018-03-06T01:21:21.215Z,8.77
2018-03-06T01:23:49.489Z,7.67
2018-03-06T01:26:17.769Z,7.87
2018-03-06T01:28:46.182Z,10.20
2018-03-06T01:31:14.460Z,9.90
2018-03-06T01:33:42.802Z,9.67
2018-03-06T01:36:11.084Z,7.87
2018-03-06T01:38:40.169Z,8.63
2018-03-06T01:41:08.489Z,7.10
2018-03-06T01:43:36.774Z,8.37
2018-03-06T01:46:05.809Z,11.30
2018-03-06T01:48:34.901Z,8.87
2018-03-06T01:51:03.185Z,9.30
2018-03-06T01:53:31.470Z,9.97
2018-03-06T01:55:59.780Z,8.23
2018-03-06T01:58:28.118Z,10.70
2018-03-06T02:00:57.447Z,10.03
2018-03-06T02:03:25.814Z,8.47
2018-03-06T02:05:55.301Z,9.60
2018-03-06T02:08:23.553Z,8.77
2018-03-06T02:10:51.810Z,8.10
2018-03-06T02:13:20.210Z,11.60
2018-03-06T02:15:48.476Z,10.63
2018-03-06T02:18:16.738Z,10.93
2018-03-06T02:20:44.976Z,11.50
2018-03-06T02:23:13.215Z,10.33
2018-03-06T02:25:41.461Z,10.27
2018-03-06T02:28:09.721Z,12.30
2018-03-06T02:30:38.274Z,11.17
2018-03-06T02:33:08.005Z,13.57
2018-03-06T02:35:36.262Z,10.57
2018-03-06T02:38:05.325Z,15.80
2018-03-06T02:40:33.599Z,9.97
2018-03-06T02:43:01.849Z,11.80
2018-03-06T02:45:31.104Z,13.73
2018-03-06T02:47:59.330Z,11.50
2018-03-06T02:50:27.580Z,11.97
2018-03-06T02:52:55.856Z,9.67
2018-03-06T02:55:24.726Z,9.90
2018-03-06T02:57:52.954Z,13.53
2018-03-06T03:00:21.217Z,10.07
2018-03-06T03:02:49.465Z,11.73
2018-03-06T03:05:18.482Z,11.37
2018-03-06T03:07:46.717Z,13.63
2018-03-06T03:10:14.969Z,11.30
2018-03-06T03:12:43.223Z,15.00
2018-03-06T03:15:11.749Z,11.13
2018-03-06T03:17:39.988Z,11.13
2018-03-06T03:20:08.216Z,10.07
2018-03-06T03:22:37.721Z,12.17
2018-03-06T03:25:06.724Z,14.53
2018-03-06T03:27:35.053Z,15.13
2018-03-06T03:30:03.563Z,10.93
2018-03-06T03:32:31.816Z,13.00
2018-03-06T03:35:00.047Z,11.67
2018-03-06T03:37:28.289Z,11.50
2018-03-06T03:39:57.382Z,14.60
2018-03-06T03:42:25.660Z,13.17
2018-03-06T03:44:53.909Z,10.60
2018-03-06T03:47:22.206Z,13.80
2018-03-06T03:49:50.434Z,12.13
2018-03-06T03:52:18.832Z,13.53
2018-03-06T03:54:47.092Z,11.87
2018-03-06T03:57:15.317Z,10.47
2018-03-06T03:59:43.582Z,13.33
2018-03-06T04:02:11.994Z,12.70
2018-03-06T04:04:40.349Z,11.03
2018-03-06T04:07:08.584Z,13.73
2018-03-06T04:09:36.829Z,12.87
2018-03-06T04:12:05.082Z,12.27
2018-03-06T04:14:33.371Z,15.90
2018-03-06T04:17:01.602Z,13.40
2018-03-06T04:19:29.853Z,12.40
2018-03-06T04:21:58.123Z,14.17
2018-03-06T04:24:26.370Z,12.30
2018-03-06T04:26:55.461Z,13.27
2018-03-06T04:29:24.565Z,18.70
2018-03-06T04:31:53.754Z,12.53
2018-03-06T04:34:22.770Z,15.90
2018-03-06T04:36:51.016Z,14.30
2018-03-06T04:39:20.046Z,16.70
2018-03-06T04:41:48.289Z,12.90
2018-03-06T04:44:16.527Z,14.90
2018-03-06T04:46:44.773Z,15.13
2018-03-06T04:49:13.024Z,13.33
2018-03-06T04:51:42.208Z,16.87
2018-03-06T04:54:10.436Z,15.10
2018-03-06T04:56:38.699Z,12.70
2018-03-06T04:59:06.993Z,14.60
2018-03-06T05:01:35.315Z,12.43
2018-03-06T05:04:03.637Z,14.97
2018-03-06T05:06:31.975Z,16.77
2018-03-06T05:09:00.250Z,16.50
2018-03-06T05:11:28.486Z,13.20
2018-03-06T05:13:56.796Z,14.53
2018-03-06T05:16:25.017Z,14.97
2018-03-06T05:18:53.276Z,14.37
2018-03-06T05:21:21.522Z,13.07
2018-03-06T05:23:49.803Z,18.13
2018-03-06T05:26:18.061Z,15.67
2018-03-06T05:28:46.457Z,15.17
2018-03-06T05:31:14.670Z,15.43
2018-03-06T05:33:42.913Z,17.47
2018-03-06T05:36:12.055Z,15.47
2018-03-06T05:38:41.305Z,14.80
2018-03-06T05:41:10.332Z,19.67
2018-03-06T05:43:38.613Z,13.13
2018-03-06T05:46:06.856Z,14.00
2018-03-06T05:48:35.538Z,16.07
2018-03-06T05:51:04.580Z,17.20
2018-03-06T05:53:34.457Z,11.77
2018-03-06T05:56:02.738Z,17.67
2018-03-06T05:58:31.134Z,16.97
2018-03-06T06:00:59.425Z,15.00
2018-03-06T06:03:28.486Z,19.30
2018-03-06T06:05:57.543Z,14.67
2018-03-06T06:08:26.369Z,15.83
2018-03-06T06:10:55.496Z,15.37
2018-03-06T06:13:23.867Z,20.77
2018-03-06T06:15:52.116Z,17.03
2018-03-06T06:18:21.139Z,25.47
2018-03-06T06:20:49.583Z,21.70
2018-03-06T06:23:17.841Z,22.80
2018-03-06T06:25:46.840Z,18.30
2018-03-06T06:28:15.122Z,23.73
2018-03-06T06:30:43.435Z,18.70
2018-03-06T06:33:12.494Z,27.53
2018-03-06T06:35:40.793Z,22.70
2018-03-06T06:38:09.093Z,20.33
2018-03-06T06:40:37.353Z,20.67
2018-03-06T06:43:05.625Z,15.77
2018-03-06T06:45:34.410Z,19.93
2018-03-06T06:48:03.517Z,19.57
2018-03-06T06:50:31.894Z,17.20
2018-03-06T06:53:00.142Z,19.20
2018-03-06T06:55:29.532Z,21.43
2018-03-06T06:57:57.817Z,17.50
2018-03-06T07:00:26.120Z,18.70
2018-03-06T07:02:54.370Z,16.83
2018-03-06T07:05:22.613Z,18.27
2018-03-06T07:07:50.853Z,18.27
2018-03-06T07:10:19.109Z,17.70
2018-03-06T07:12:47.401Z,19.00
2018-03-06T07:15:15.649Z,19.60
2018-03-06T07:17:44.780Z,21.30
2018-03-06T07:20:13.776Z,20.07
2018-03-06T07:22:42.053Z,21.13
2018-03-06T07:25:10.335Z,19.80
2018-03-06T07:27:39.429Z,18.93
2018-03-06T07:30:07.758Z,28.67
2018-03-06T07:32:36.522Z,22.90
2018-03-06T07:35:04.872Z,22.90
2018-03-06T07:37:33.166Z,22.47
2018-03-06T07:40:01.446Z,25.50
2018-03-06T07:42:29.960Z,18.20
2018-03-06T07:44:58.336Z,22.63
2018-03-06T07:47:26.666Z,21.80
2018-03-06T07:49:54.950Z,20.33
2018-03-06T07:52:23.226Z,19.10
2018-03-06T07:54:51.485Z,21.47
2018-03-06T07:57:20.478Z,26.17
2018-03-06T07:59:48.917Z,25.10
2018-03-06T08:02:18.676Z,19.37
2018-03-06T08:04:46.926Z,22.90
2018-03-06T08:07:15.251Z,22.07
2018-03-06T08:09:43.484Z,23.30
2018-03-06T08:12:11.845Z,22.20
2018-03-06T08:14:41.024Z,23.03
2018-03-06T08:17:09.352Z,22.33
2018-03-06T08:19:37.729Z,19.67
2018-03-06T08:22:06.007Z,25.13
2018-03-06T08:24:34.368Z,22.57
2018-03-06T08:27:03.441Z,22.40
2018-03-06T08:29:32.733Z,23.70
2018-03-06T08:32:01.021Z,23.23
2018-03-06T08:34:29.298Z,21.83
2018-03-06T08:36:58.489Z,20.30
2018-03-06T08:39:26.721Z,24.80
2018-03-06T08:41:55.023Z,21.87
2018-03-06T08:44:23.330Z,24.07
2018-03-06T08:46:51.607Z,25.03
2018-03-06T08:49:19.992Z,21.70
2018-03-06T08:51:48.493Z,26.50
2018-03-06T08:54:16.793Z,18.37
2018-03-06T08:56:45.269Z,22.97
2018-03-06T08:59:13.553Z,24.60
2018-03-06T09:01:42.730Z,20.27
2018-03-06T09:04:11.104Z,24.43
2018-03-06T09:06:39.349Z,35.13
2018-03-06T09:09:08.479Z,30.47
2018-03-06T09:11:36.819Z,23.03
2018-03-06T09:14:05.075Z,28.60
2018-03-06T09:16:33.384Z,25.03
2018-03-06T09:19:01.705Z,24.50
2018-03-06T09:21:34.959Z,22.30
2018-03-06T09:24:03.385Z,26.17
2018-03-06T09:26:31.725Z,26.70
2018-03-06T09:28:59.946Z,24.60
2018-03-06T09:31:29.196Z,32.30
2018-03-06T09:33:58.193Z,30.70
2018-03-06T09:36:27.284Z,24.30
2018-03-06T09:38:55.564Z,26.60
2018-03-06T09:41:23.843Z,21.20
2018-03-06T09:43:52.259Z,22.53
2018-03-06T09:46:20.530Z,24.07
2018-03-06T09:48:48.818Z,24.63
2018-03-06T09:51:17.082Z,22.10
2018-03-06T09:53:46.265Z,18.97
2018-03-06T09:56:16.577Z,20.43
2018-03-06T09:58:49.965Z,24.30
2018-03-06T10:01:18.363Z,27.40
2018-03-06T10:03:46.825Z,21.23
2018-03-06T10:06:15.121Z,22.97
2018-03-06T10:08:43.365Z,22.00
2018-03-06T10:11:12.409Z,18.70
2018-03-06T10:13:40.841Z,20.50
2018-03-06T10:16:09.509Z,22.40
2018-03-06T10:18:37.741Z,21.47
2018-03-06T10:21:06.036Z,25.57
2018-03-06T10:23:35.205Z,23.90
2018-03-06T10:26:03.392Z,23.20
2018-03-06T10:28:31.649Z,25.50
2018-03-06T10:30:59.946Z,25.57
2018-03-06T10:33:28.168Z,17.43
2018-03-06T10:35:59.408Z,17.80
2018-03-06T10:38:29.216Z,21.17
2018-03-06T10:40:57.820Z,24.27
2018-03-06T10:43:26.026Z,18.93
2018-03-06T10:45:54.265Z,37.60
2018-03-06T10:48:24.160Z,22.50
2018-03-06T10:50:52.558Z,20.23
2018-03-06T10:53:20.976Z,22.43
2018-03-06T10:55:50.431Z,17.70
2018-03-06T10:58:18.719Z,24.30
2018-03-06T11:00:47.022Z,22.60
2018-03-06T11:03:21.113Z,24.40
2018-03-06T11:05:50.140Z,21.40
2018-03-06T11:08:18.438Z,17.50
2018-03-06T11:10:46.677Z,17.83
2018-03-06T11:13:15.113Z,26.53
2018-03-06T11:15:43.400Z,17.10
2018-03-06T11:18:11.647Z,18.87
2018-03-06T11:20:40.037Z,21.47
2018-03-06T11:23:08.341Z,18.23
2018-03-06T11:25:37.477Z,20.03
2018-03-06T11:28:06.558Z,22.37
2018-03-06T11:30:34.811Z,19.40
2018-03-06T11:33:03.093Z,23.07
2018-03-06T11:35:32.184Z,20.73
2018-03-06T11:38:01.197Z,19.03
2018-03-06T11:40:29.550Z,23.43
2018-03-06T11:42:58.599Z,20.33
2018-03-06T11:45:26.850Z,30.90
2018-03-06T11:47:55.099Z,23.90
2018-03-06T11:50:23.384Z,21.77
2018-03-06T11:52:52.396Z,25.77
2018-03-06T11:55:21.601Z,27.60
2018-03-06T11:57:50.092Z,19.40
2018-03-06T12:00:18.380Z,20.43
2018-03-06T12:02:46.812Z,20.00
2018-03-06T12:05:15.268Z,15.70
2018-03-06T12:07:43.513Z,16.43
2018-03-06T12:10:11.871Z,16.43
2018-03-06T12:12:40.160Z,27.83
2018-03-06T12:15:08.487Z,20.23
2018-03-06T12:17:36.720Z,15.23
2018-03-06T12:20:05.143Z,15.23
2018-03-06T12:22:34.204Z,15.47
2018-03-06T12:25:02.482Z,20.00
2018-03-06T12:27:30.817Z,15.50
2018-03-06T12:29:59.133Z,24.40
2018-03-06T12:32:27.472Z,12.77
2018-03-06T12:34:56.583Z,12.90
2018-03-06T12:37:24.883Z,14.43
2018-03-06T12:39:53.140Z,18.77
2018-03-06T12:42:21.378Z,21.20
2018-03-06T12:44:49.678Z,16.33
2018-03-06T12:47:17.950Z,17.17
2018-03-06T12:49:46.297Z,15.70
2018-03-06T12:52:14.522Z,20.93
2018-03-06T12:54:42.814Z,14.83
2018-03-06T12:57:11.043Z,12.63
2018-03-06T12:59:39.308Z,14.97
2018-03-06T13:02:07.609Z,21.43
2018-03-06T13:04:35.889Z,19.90
2018-03-06T13:07:04.155Z,18.00
2018-03-06T13:09:32.648Z,13.33
2018-03-06T13:12:00.837Z,12.53
2018-03-06T13:14:29.165Z,15.10
2018-03-06T13:16:57.405Z,16.50
2018-03-06T13:19:25.637Z,15.03
2018-03-06T13:21:53.980Z,12.90
2018-03-06T13:24:22.328Z,15.10
2018-03-06T13:26:50.584Z,14.70
2018-03-06T13:29:18.924Z,17.40
2018-03-06T13:31:47.821Z,13.27
2018-03-06T13:34:16.095Z,14.33
2018-03-06T13:36:44.522Z,18.80
2018-03-06T13:39:13.576Z,14.23
2018-03-06T13:41:42.808Z,15.87
2018-03-06T13:44:11.069Z,14.60
2018-03-06T13:46:39.374Z,18.87
2018-03-06T13:49:08.002Z,16.60
2018-03-06T13:51:36.293Z,14.67
2018-03-06T13:54:04.577Z,16.67
2018-03-06T13:56:32.879Z,14.53
2018-03-06T13:59:01.175Z,19.30
2018-03-06T14:01:29.454Z,15.60
2018-03-06T14:03:57.741Z,19.17
2018-03-06T14:06:26.158Z,13.67
2018-03-06T14:08:54.426Z,17.93
2018-03-06T14:11:22.672Z,20.30
2018-03-06T14:13:50.920Z,14.63
2018-03-06T14:16:19.181Z,14.90
2018-03-06T14:18:47.527Z,16.70
2018-03-06T14:21:16.570Z,13.37
2018-03-06T14:23:45.779Z,15.23
2018-03-06T14:26:14.869Z,16.60
2018-03-06T14:28:43.142Z,14.60
2018-03-06T14:31:12.119Z,14.93
2018-03-06T14:33:40.392Z,11.77
2018-03-06T14:36:08.733Z,12.23
2018-03-06T14:38:36.985Z,9.90
2018-03-06T14:41:05.238Z,9.63
2018-03-06T14:43:33.489Z,10.47
2018-03-06T14:46:01.734Z,11.57
2018-03-06T14:48:30.033Z,7.97
2018-03-06T14:50:59.210Z,14.17
2018-03-06T14:53:27.425Z,13.63
2018-03-06T14:55:55.674Z,11.43
2018-03-06T14:58:23.985Z,9.50
2018-03-06T15:00:52.982Z,13.77
2018-03-06T15:03:21.227Z,10.07
2018-03-06T15:05:49.833Z,10.03
2018-03-06T15:08:19.021Z,12.77
2018-03-06T15:10:47.321Z,15.00
2018-03-06T15:13:15.551Z,16.93
2018-03-06T15:15:44.637Z,16.37
2018-03-06T15:18:12.920Z,17.73
2018-03-06T15:20:41.187Z,16.13
2018-03-06T15:23:09.450Z,18.03
2018-03-06T15:25:37.679Z,16.77
2018-03-06T15:28:05.941Z,17.00
2018-03-06T15:30:38.084Z,18.83
2018-03-06T15:33:06.562Z,16.10
2018-03-06T15:35:34.782Z,17.87
2018-03-06T15:38:03.030Z,16.50
2018-03-06T15:40:32.084Z,12.80
2018-03-06T15:43:00.473Z,22.60
2018-03-06T15:45:28.750Z,16.37
2018-03-06T15:47:56.957Z,15.77
2018-03-06T15:50:26.136Z,13.23
2018-03-06T15:52:55.201Z,15.33
2018-03-06T15:55:23.490Z,17.83
2018-03-06T15:57:52.504Z,15.97
2018-03-06T16:00:20.764Z,14.97
2018-03-06T16:02:49.037Z,16.60
2018-03-06T16:05:17.277Z,16.37
2018-03-06T16:07:45.539Z,15.07
2018-03-06T16:10:14.621Z,24.33
2018-03-06T16:12:42.898Z,14.37
2018-03-06T16:15:11.137Z,19.20
2018-03-06T16:17:39.409Z,18.00
2018-03-06T16:20:07.758Z,15.90
2018-03-06T16:22:36.053Z,24.87
2018-03-06T16:25:04.326Z,20.40
2018-03-06T16:27:32.562Z,22.63
2018-03-06T16:30:00.822Z,16.27
2018-03-06T16:32:29.258Z,19.73
2018-03-06T16:34:57.542Z,21.23
2018-03-06T16:37:25.784Z,19.30
2018-03-06T16:39:54.096Z,20.00
2018-03-06T16:42:22.355Z,21.03
2018-03-06T16:44:50.677Z,19.23
2018-03-06T16:47:20.409Z,19.87
2018-03-06T16:49:48.682Z,22.97
2018-03-06T16:52:16.939Z,30.53
2018-03-06T16:54:45.456Z,19.10
2018-03-06T16:57:14.925Z,23.03
2018-03-06T16:59:43.412Z,20.37
2018-03-06T17:02:11.821Z,23.47
2018-03-06T17:04:40.841Z,19.57
2018-03-06T17:07:09.254Z,23.47
2018-03-06T17:09:37.482Z,24.23
2018-03-06T17:12:05.750Z,18.50
2018-03-06T17:14:34.080Z,23.70
2018-03-06T17:17:02.326Z,17.77
2018-03-06T17:19:30.806Z,22.27
2018-03-06T17:21:59.069Z,19.00
2018-03-06T17:24:27.321Z,22.10
2018-03-06T17:26:55.609Z,26.63
2018-03-06T17:29:24.626Z,18.93
2018-03-06T17:31:52.923Z,24.47
2018-03-06T17:34:21.189Z,20.00
2018-03-06T17:36:49.459Z,24.40
2018-03-06T17:39:17.903Z,21.50
2018-03-06T17:41:46.178Z,14.77
2018-03-06T17:44:15.250Z,18.33
2018-03-06T17:46:43.542Z,20.90
2018-03-06T17:49:11.815Z,20.90
2018-03-06T17:51:40.046Z,15.10
2018-03-06T17:54:08.315Z,21.73
2018-03-06T17:56:36.568Z,15.73
2018-03-06T17:59:04.823Z,18.20
2018-03-06T18:01:33.061Z,14.80
2018-03-06T18:04:01.326Z,21.80
2018-03-06T18:06:29.728Z,17.93
2018-03-06T18:08:57.953Z,20.80
2018-03-06T18:11:26.296Z,14.80
2018-03-06T18:13:54.529Z,17.13
2018-03-06T18:16:22.836Z,19.43
2018-03-06T18:18:51.083Z,16.20
2018-03-06T18:21:19.382Z,15.97
2018-03-06T18:23:47.638Z,16.73
2018-03-06T18:26:15.886Z,14.90
2018-03-06T18:28:44.157Z,18.80
2018-03-06T18:31:12.560Z,23.50
2018-03-06T18:33:40.827Z,15.10
2018-03-06T18:36:09.106Z,19.00
2018-03-06T18:38:37.351Z,17.90
2018-03-06T18:41:05.626Z,17.80
2018-03-06T18:43:34.097Z,17.00
2018-03-06T18:46:02.557Z,16.70
2018-03-06T18:48:32.064Z,18.20
2018-03-06T18:51:12.218Z,16.00
2018-03-06T18:53:40.491Z,18.07
2018-03-06T18:56:08.733Z,18.17
2018-03-06T18:58:37.098Z,20.23
2018-03-06T19:04:21.948Z,17.17
2018-03-06T19:07:08.039Z,18.40
2018-03-06T19:09:36.278Z,19.10
2018-03-06T19:12:04.576Z,17.17
2018-03-06T19:14:33.624Z,28.13
2018-03-06T19:17:01.861Z,19.17
2018-03-06T19:19:30.330Z,21.20
2018-03-06T19:21:58.607Z,19.57
2018-03-06T19:24:26.849Z,18.20
2018-03-06T19:26:55.125Z,22.80
2018-03-06T19:29:23.442Z,18.40
2018-03-06T19:31:52.542Z,22.03
2018-03-06T19:34:20.844Z,21.27
2018-03-06T19:36:49.495Z,22.87
2018-03-06T19:39:18.178Z,21.37
2018-03-06T19:41:46.501Z,20.77
2018-03-06T19:44:15.198Z,20.87
2018-03-06T19:46:43.480Z,20.70
2018-03-06T19:49:12.114Z,20.40
2018-03-06T19:51:40.438Z,19.50
2018-03-06T19:54:09.067Z,25.80
2018-03-06T19:56:37.727Z,19.57
2018-03-06T19:59:06.642Z,21.50
2018-03-06T20:01:35.326Z,21.23
2018-03-06T20:04:04.018Z,20.50
2018-03-06T20:06:32.312Z,21.40
2018-03-06T20:09:00.586Z,20.83
2018-03-06T20:11:29.865Z,21.50
2018-03-06T20:13:59.733Z,21.23
2018-03-06T20:16:27.985Z,21.50
2018-03-06T20:19:02.893Z,21.23
2018-03-06T20:21:31.687Z,23.03
2018-03-06T20:24:06.562Z,20.47
2018-03-06T20:26:34.858Z,20.73
2018-03-06T20:29:03.570Z,21.77
2018-03-06T20:31:38.194Z,20.60
2018-03-06T20:34:06.475Z,29.10
2018-03-06T20:36:35.978Z,26.73
2018-03-06T20:39:10.517Z,30.70
2018-03-06T20:41:38.865Z,21.77
2018-03-06T20:44:07.181Z,27.20
2018-03-06T20:46:41.226Z,24.70
2018-03-06T20:49:09.555Z,21.80
2018-03-06T20:51:39.212Z,23.70
2018-03-06T20:57:09.189Z,22.47
2018-03-06T20:59:37.427Z,21.47
2018-03-06T21:02:05.742Z,22.40
2018-03-06T21:04:34.001Z,22.90
2018-03-06T21:07:02.236Z,24.23
2018-03-06T21:09:30.519Z,22.23
2018-03-06T21:11:58.776Z,23.33
2018-03-06T21:14:27.441Z,21.80
2018-03-06T21:16:55.682Z,22.50
2018-03-06T21:19:23.969Z,22.53
2018-03-06T21:21:53.056Z,24.87
2018-03-06T21:24:21.285Z,24.27
2018-03-06T21:26:49.553Z,23.47
2018-03-06T21:29:19.741Z,26.37
2018-03-06T21:31:48.012Z,24.70
2018-03-06T21:34:16.420Z,23.57
2018-03-06T21:36:45.495Z,24.63
2018-03-06T21:39:13.740Z,23.20
2018-03-06T21:41:41.998Z,22.93
2018-03-06T21:44:10.327Z,23.97
2018-03-06T21:46:38.585Z,23.40
2018-03-06T21:49:06.845Z,26.83
2018-03-06T21:51:35.120Z,24.33
2018-03-06T21:54:03.401Z,22.20
2018-03-06T21:56:31.712Z,23.13
2018-03-06T21:59:00.971Z,23.60
2018-03-06T22:01:29.247Z,22.27
2018-03-06T22:03:57.502Z,23.50
2018-03-06T22:06:26.816Z,22.00
2018-03-06T22:08:55.094Z,25.33
2018-03-06T22:11:23.371Z,22.57
2018-03-06T22:13:51.697Z,23.40
2018-03-06T22:16:19.909Z,23.67
2018-03-06T22:18:48.205Z,24.00
2018-03-06T22:21:16.457Z,24.30
2018-03-06T22:23:44.708Z,24.13
2018-03-06T22:26:13.790Z,26.30
2018-03-06T22:28:42.648Z,25.67
2018-03-06T22:31:10.915Z,24.30
2018-03-06T22:33:39.175Z,25.27
2018-03-06T22:36:07.440Z,23.70
2018-03-06T22:38:35.704Z,25.90
2018-03-06T22:41:04.577Z,25.80
2018-03-06T22:43:32.873Z,26.20
2018-03-06T22:46:01.302Z,26.30
2018-03-06T22:48:29.598Z,25.67
2018-03-06T22:50:57.948Z,24.73
2018-03-06T22:53:28.048Z,25.87
2018-03-06T22:55:57.178Z,25.13
2018-03-06T22:58:25.431Z,27.77
2018-03-06T23:00:53.698Z,28.80
2018-03-06T23:03:21.977Z,29.17
2018-03-06T23:05:50.250Z,30.80
2018-03-06T23:08:18.672Z,27.83
2018-03-06T23:10:46.903Z,34.30
2018-03-06T23:13:15.175Z,29.43
2018-03-06T23:15:43.428Z,30.47
2018-03-06T23:18:11.705Z,29.73
2018-03-06T23:20:40.203Z,28.80
2018-03-06T23:23:08.450Z,29.53
2018-03-06T23:25:36.885Z,28.53
2018-03-06T23:28:05.174Z,30.43
2018-03-06T23:30:34.245Z,27.17
2018-03-06T23:33:02.553Z,30.50
2018-03-06T23:35:30.821Z,29.33
2018-03-06T23:37:59.145Z,29.87
2018-03-06T23:40:27.429Z,28.53
2018-03-06T23:42:55.681Z,31.30
2018-03-06T23:45:23.930Z,31.73
2018-03-06T23:47:52.209Z,29.87
2018-03-06T23:50:20.464Z,28.77
2018-03-06T23:52:48.728Z,29.63
2018-03-06T23:55:16.984Z,31.10
2018-03-06T23:57:46.006Z,31.07
